KNPA/NPA METAR and TAF weather

Enter ICAO airport designator
Station Type Date Time Source
KNPA METAR 2022/01/29 01:56 UTC NOAA

KNPA 290156Z 28007KT 10SM FEW060 08/M06 A3022 RMK AO2 SLP235 T00781056 $


Station Type Date Time Source
KNPA Decoded METAR 2022/01/29 01:56 UTC NOAA

Pensacola, Naval Air Station, FL, United States (KNPA) 30-21-22N 087-19-24W 10M
Jan 28, 2022 - 08:56 PM EST / 2022.01.29 0156 UTC
Wind: from the W (280 degrees) at 8 MPH (7 KT):0
Visibility: 10 mile(s):0
Sky conditions: mostly clear
Temperature: 46.0 F (7.8 C)
Dew Point: 21.9 F (-5.6 C)
Relative Humidity: 38%
Pressure (altimeter): 30.22 in. Hg (1023 hPa)
ob: KNPA 290156Z 28007KT 10SM FEW060 08/M06 A3022 RMK AO2 SLP235 T00781056
cycle: 2

Station Type Date Time Source
KNPA TAF 2022/01/28 23:07 UTC NOAA

TAF KNPA 2823/2923 33018G25KT 9999 FEW060 510003 QNH3010INS
FM290200 33019G27KT 9999 SCT070 510005 QNH3012INS
FM291200 35013G20KT 9999 SKC 500000 QNH3025INS LAST NO
AMDS 2901 NEXT 3107 AUTOMATED SENSOR METWATCH 2903 TIL 2915 TM02/2911Z T09/2918Z FN20034

Example: see airport list